Time;durP1;ratioP1;P1;durP2;ratioP2;P2;SDS_P1;SDS_P2;PMS_P1;PMS_P2;Temp;Humidity;BMP_temperature;BMP_pressure;BME280_temperature;BME280_humidity;BME280_pressure;Samples;Min_cycle;Max_cycle;Signal;HPM_P1;HPM_P2
2023/03/27 00:01:19;;;;;;;;;0.33;0.33;;;;;22.77;37.72;101750.78;5076516;27;45308;-81
2023/03/27 00:03:48;;;;;;;;;0.00;0.00;;;;;22.80;37.78;101759.22;5076374;28;45352;-83
2023/03/27 00:06:17;;;;;;;;;0.00;0.00;;;;;22.69;37.64;101762.16;5076623;27;46411;-83
2023/03/27 00:08:45;;;;;;;;;2.00;1.00;;;;;22.72;37.75;101773.31;5076280;28;45279;-83
2023/03/27 00:11:11;;;;;;;;;3.00;0.00;;;;;22.76;37.51;101789.75;5076551;28;45374;-83
2023/03/27 00:13:37;;;;;;;;;0.00;0.00;;;;;22.70;37.92;101790.38;5076478;28;45467;-83
2023/03/27 00:16:04;;;;;;;;;0.00;0.00;;;;;22.74;37.72;101805.81;5076335;28;47540;-83
2023/03/27 00:18:29;;;;;;;;;0.00;0.00;;;;;22.73;38.13;101801.50;5075838;27;45348;-82
2023/03/27 00:20:59;;;;;;;;;0.00;0.00;;;;;22.73;37.69;101808.63;5074991;28;45336;-83
2023/03/27 00:23:28;;;;;;;;;0.00;0.00;;;;;22.72;37.62;101814.91;5076121;27;45380;-83
2023/03/27 00:25:55;;;;;;;;;0.00;0.00;;;;;22.69;38.15;101821.34;5076184;27;46435;-82
2023/03/27 00:28:21;;;;;;;;;0.00;0.00;;;;;22.70;37.62;101820.38;5076140;27;45359;-82
2023/03/27 00:30:46;;;;;;;;;0.00;0.00;;;;;22.72;38.21;101831.66;5075985;28;45233;-82
2023/03/27 00:33:13;;;;;;;;;1.33;0.00;;;;;22.72;37.79;101825.53;5076097;28;45230;-82
2023/03/27 00:35:47;;;;;;;;;0.33;0.33;;;;;22.70;38.02;101832.81;5076023;28;45417;-82
2023/03/27 00:38:14;;;;;;;;;5.00;1.00;;;;;22.71;37.93;101843.28;5075804;27;45436;-82
2023/03/27 00:40:40;;;;;;;;;1.33;0.00;;;;;22.70;37.56;101836.31;5076077;28;45400;-82
2023/03/27 00:43:42;;;;;;;;;3.00;0.67;;;;;22.72;37.90;101849.41;5076048;27;45353;-83
2023/03/27 00:46:26;;;;;;;;;0.00;0.00;;;;;22.65;38.12;101832.44;5073124;28;46930;-83
2023/03/27 00:48:54;;;;;;;;;2.67;0.00;;;;;22.70;38.09;101844.25;5073182;28;45301;-82
2023/03/27 00:51:23;;;;;;;;;0.00;0.00;;;;;22.69;37.54;101849.72;5073318;28;45472;-82
2023/03/27 00:53:50;;;;;;;;;0.00;0.00;;;;;22.70;37.38;101851.38;5073852;28;45386;-82
2023/03/27 00:56:16;;;;;;;;;1.00;0.00;;;;;22.62;37.61;101845.03;5073410;28;47229;-82
2023/03/27 00:58:46;;;;;;;;;0.00;0.00;;;;;22.71;37.46;101868.97;5073388;28;45238;-83
2023/03/27 01:01:13;;;;;;;;;0.33;0.00;;;;;22.73;37.77;101873.13;5072074;28;45526;-81
2023/03/27 01:03:42;;;;;;;;;0.00;0.00;;;;;22.73;37.17;101877.59;5073614;28;45705;-82
2023/03/27 01:06:09;;;;;;;;;1.00;1.00;;;;;22.74;37.16;101872.13;5073397;28;46276;-82
2023/03/27 01:08:38;;;;;;;;;2.00;1.00;;;;;22.73;37.23;101873.13;5073315;28;45478;-82
2023/03/27 01:11:13;;;;;;;;;0.00;0.00;;;;;22.74;37.19;101887.22;5073480;28;45316;-82
2023/03/27 01:13:56;;;;;;;;;0.00;0.00;;;;;22.76;37.09;101889.72;5073553;28;45405;-82
2023/03/27 01:16:34;;;;;;;;;0.33;0.33;;;;;22.74;37.59;101885.38;5072877;28;46249;-82
2023/03/27 01:19:21;;;;;;;;;0.00;0.00;;;;;22.74;37.51;101887.22;5073394;28;45431;-81
2023/03/27 01:22:14;;;;;;;;;0.00;0.00;;;;;22.73;37.25;101886.41;5074472;27;45291;-83
2023/03/27 01:25:40;;;;;;;;;0.00;0.00;;;;;22.71;37.10;101896.34;5075493;27;45508;-82
2023/03/27 01:28:27;;;;;;;;;0.33;0.00;;;;;22.70;37.37;101896.47;5052644;28;46163;-82
2023/03/27 01:31:01;;;;;;;;;0.00;0.00;;;;;22.68;37.73;101888.66;5052420;28;45412;-82
2023/03/27 01:33:45;;;;;;;;;0.00;0.00;;;;;22.68;37.03;101891.31;5053029;28;45321;-82
2023/03/27 01:36:43;;;;;;;;;3.00;0.00;;;;;22.64;37.20;101895.25;5052712;28;45288;-82
2023/03/27 01:39:33;;;;;;;;;1.00;0.00;;;;;22.66;37.24;101893.31;5052588;28;47302;-82
2023/03/27 01:42:29;;;;;;;;;0.00;0.00;;;;;22.66;37.55;101890.66;5043864;28;45366;-82
2023/03/27 01:45:09;;;;;;;;;0.00;0.00;;;;;22.67;37.12;101892.28;5051844;28;45463;-82
2023/03/27 01:47:49;;;;;;;;;1.00;1.00;;;;;22.65;37.60;101896.09;5052638;28;45444;-81
2023/03/27 01:50:33;;;;;;;;;0.00;0.00;;;;;22.66;37.38;101893.31;5052636;28;46134;-82
2023/03/27 01:53:03;;;;;;;;;0.00;0.00;;;;;22.67;37.78;101892.28;5052650;28;45361;-82
2023/03/27 01:55:35;;;;;;;;;0.00;0.00;;;;;22.66;37.26;101889.81;5052689;28;45410;-82
2023/03/27 01:58:07;;;;;;;;;0.33;0.00;;;;;22.65;37.83;101896.09;5052578;28;45448;-82
2023/03/27 02:00:35;;;;;;;;;1.00;0.00;;;;;22.61;37.62;101892.94;5052038;28;46248;-81
2023/03/27 02:03:14;;;;;;;;;0.00;0.00;;;;;22.57;37.37;101895.06;5057885;28;45385;-82
2023/03/27 02:05:57;;;;;;;;;0.00;0.00;;;;;22.62;37.17;101905.19;5058389;28;45391;-82
2023/03/27 02:09:00;;;;;;;;;0.00;0.00;;;;;22.58;37.24;101915.31;5058268;28;45371;-82
2023/03/27 02:11:32;;;;;;;;;0.00;0.00;;;;;22.62;37.72;101923.78;5047025;28;46251;-82
2023/03/27 02:14:10;;;;;;;;;0.67;0.33;;;;;22.64;37.56;101921.78;5057631;28;45458;-82
2023/03/27 02:16:44;;;;;;;;;0.33;0.00;;;;;22.66;37.20;101919.00;5058163;28;45324;-82
2023/03/27 02:19:21;;;;;;;;;0.00;0.00;;;;;22.67;36.96;101924.13;5057931;28;45503;-81
2023/03/27 02:21:46;;;;;;;;;0.33;0.33;;;;;22.56;36.89;101901.34;5058997;27;47379;-81
2023/03/27 02:24:15;;;;;;;;;0.00;0.00;;;;;22.68;36.92;101922.31;5078002;27;45459;-82
2023/03/27 02:26:40;;;;;;;;;1.00;1.00;;;;;22.67;37.24;101924.13;5078252;28;45425;-82
2023/03/27 02:29:17;;;;;;;;;0.00;0.00;;;;;22.69;37.37;101924.00;5077882;28;45330;-82
2023/03/27 02:32:11;;;;;;;;;0.00;0.00;;;;;22.70;36.86;101925.66;5077894;27;46253;-82
2023/03/27 02:34:57;;;;;;;;;2.33;1.33;;;;;22.68;37.27;101930.28;5075394;28;45537;-81
2023/03/27 02:37:38;;;;;;;;;0.00;0.00;;;;;22.67;37.13;101941.84;5075547;28;45498;-81
2023/03/27 02:40:31;;;;;;;;;0.00;0.00;;;;;22.66;37.02;101948.16;5075684;28;45601;-82
2023/03/27 02:43:05;;;;;;;;;0.00;0.00;;;;;22.65;37.53;101949.16;5075234;28;47096;-82
2023/03/27 02:45:51;;;;;;;;;0.00;0.00;;;;;22.64;37.02;101953.63;5075564;28;45567;-82
2023/03/27 02:48:33;;;;;;;;;0.00;0.00;;;;;22.57;37.40;101948.13;5075614;28;45332;-82
2023/03/27 02:51:13;;;;;;;;;0.00;0.00;;;;;22.57;37.11;101949.94;5075513;28;45547;-82
2023/03/27 02:53:46;;;;;;;;;0.00;0.00;;;;;22.62;36.97;101967.03;5075486;28;45318;-81
2023/03/27 02:56:15;;;;;;;;;0.67;0.00;;;;;22.66;36.82;101966.75;5075442;28;45438;-82
2023/03/27 02:58:58;;;;;;;;;0.00;0.00;;;;;22.63;37.13;101975.84;5075040;28;45504;-82
2023/03/27 03:01:25;;;;;;;;;0.00;0.00;;;;;22.63;36.97;101975.84;5075395;28;45317;-81
2023/03/27 03:03:58;;;;;;;;;0.00;0.00;;;;;22.62;36.91;101982.13;5058093;28;47166;-82
2023/03/27 03:06:30;;;;;;;;;1.00;0.00;;;;;22.62;37.21;101990.09;5075314;28;45550;-82
2023/03/27 03:09:05;;;;;;;;;0.00;0.00;;;;;22.61;37.11;101989.25;5075411;28;45447;-82
2023/03/27 03:11:32;;;;;;;;;2.33;0.00;;;;;22.59;37.46;101993.03;5076440;28;45337;-81
2023/03/27 03:13:58;;;;;;;;;1.00;1.00;;;;;22.58;36.93;101994.88;5077129;28;46142;-82
2023/03/27 03:16:23;;;;;;;;;0.00;0.00;;;;;22.57;36.91;101995.84;5077294;28;45247;-83
2023/03/27 03:18:49;;;;;;;;;0.00;0.00;;;;;22.57;37.25;101995.84;5077524;28;45454;-82
2023/03/27 03:21:15;;;;;;;;;0.00;0.00;;;;;22.57;37.09;102005.63;5077362;28;45436;-82
2023/03/27 03:23:40;;;;;;;;;0.00;0.00;;;;;22.57;37.07;102011.78;5076948;27;46104;-83
2023/03/27 03:26:06;;;;;;;;;2.00;0.00;;;;;22.57;37.00;102009.13;5076779;27;48202;-82
2023/03/27 03:28:34;;;;;;;;;0.00;0.00;;;;;22.57;36.70;102003.81;5077521;27;45388;-82
2023/03/27 03:31:01;;;;;;;;;0.67;0.00;;;;;22.59;37.14;102008.94;5077223;27;45347;-82
2023/03/27 03:33:28;;;;;;;;;0.00;0.00;;;;;22.61;36.97;102007.00;5076917;28;47204;-82
2023/03/27 03:35:57;;;;;;;;;0.00;0.00;;;;;22.61;36.99;102015.78;5076935;28;45524;-81
2023/03/27 03:38:26;;;;;;;;;0.00;0.00;;;;;22.62;36.52;102014.78;5076948;28;45472;-82
2023/03/27 03:40:53;;;;;;;;;0.00;0.00;;;;;22.60;37.06;102019.44;5076659;27;45223;-82
2023/03/27 03:43:22;;;;;;;;;0.33;0.33;;;;;22.62;36.90;102020.09;5076751;28;46308;-82
2023/03/27 03:45:48;;;;;;;;;0.00;0.00;;;;;22.63;36.98;102034.19;5076831;28;45446;-82
2023/03/27 03:48:14;;;;;;;;;1.00;0.00;;;;;22.65;36.34;102031.38;5076874;27;45335;-82
2023/03/27 03:50:39;;;;;;;;;0.00;0.00;;;;;22.65;36.82;102028.72;5076676;28;45370;-82
2023/03/27 03:53:05;;;;;;;;;0.00;0.00;;;;;22.56;37.19;102023.34;5076645;27;46337;-82
2023/03/27 03:55:31;;;;;;;;;0.00;0.00;;;;;22.64;37.07;102049.13;5076497;28;45532;-82
2023/03/27 03:57:57;;;;;;;;;0.00;0.00;;;;;22.63;36.72;102050.94;5076894;28;45283;-82
2023/03/27 04:00:23;;;;;;;;;0.00;0.00;;;;;22.55;36.64;102040.28;5076751;28;45606;-83
2023/03/27 04:02:52;;;;;;;;;0.00;0.00;;;;;22.62;36.45;102054.59;5076534;28;46180;-82
2023/03/27 04:05:18;;;;;;;;;0.33;0.00;;;;;22.62;36.58;102061.69;5076438;28;45385;-82
2023/03/27 04:07:44;;;;;;;;;1.75;0.00;;;;;22.59;36.84;102052.22;5076718;28;45301;-83
2023/03/27 04:10:12;;;;;;;;;0.00;0.00;;;;;22.60;36.67;102066.34;5076058;28;45353;-81
2023/03/27 04:12:38;;;;;;;;;0.00;0.00;;;;;22.59;37.10;102059.34;5075990;28;46518;-81
2023/03/27 04:15:03;;;;;;;;;0.00;0.00;;;;;22.46;36.64;102039.38;5076362;28;45387;-82
2023/03/27 04:17:32;;;;;;;;;0.00;0.00;;;;;22.57;36.54;102064.81;5076637;28;45415;-82
2023/03/27 04:19:57;;;;;;;;;0.33;0.33;;;;;22.56;37.24;102081.72;5076116;27;45483;-82
2023/03/27 04:22:25;;;;;;;;;1.00;0.00;;;;;22.55;36.64;102079.22;5076011;27;46357;-82
2023/03/27 04:24:50;;;;;;;;;0.00;0.00;;;;;22.54;37.08;102061.63;5075259;27;45306;-82
2023/03/27 04:27:16;;;;;;;;;0.00;0.00;;;;;22.54;37.01;102064.28;5076380;28;45329;-82
2023/03/27 04:29:46;;;;;;;;;1.00;0.00;;;;;22.53;36.65;102068.78;5076361;27;45298;-81
2023/03/27 04:32:12;;;;;;;;;0.00;0.00;;;;;22.52;37.11;102065.28;5075896;27;47173;-82
2023/03/27 04:34:39;;;;;;;;;0.00;0.00;;;;;22.51;37.09;102073.38;5076203;28;45450;-81
2023/03/27 04:37:04;;;;;;;;;0.00;0.00;;;;;22.46;36.64;102081.81;5075911;27;45443;-82
2023/03/27 04:39:34;;;;;;;;;0.00;0.00;;;;;22.51;36.49;102087.47;5075751;28;45299;-83
2023/03/27 04:42:01;;;;;;;;;0.00;0.00;;;;;22.51;37.19;102095.44;5076277;27;46254;-82
2023/03/27 04:44:27;;;;;;;;;1.00;0.00;;;;;22.47;36.59;102087.94;5075923;28;45386;-83
2023/03/27 04:46:52;;;;;;;;;1.00;0.00;;;;;22.48;36.91;102084.31;5076212;28;45433;-83
2023/03/27 04:49:17;;;;;;;;;0.00;0.00;;;;;22.51;36.57;102092.78;5076031;28;45386;-82
2023/03/27 04:51:46;;;;;;;;;0.00;0.00;;;;;22.52;36.43;102096.28;5075973;27;46065;-81
2023/03/27 04:54:12;;;;;;;;;0.00;0.00;;;;;22.56;36.66;102099.47;5075687;28;45489;-82
2023/03/27 04:56:39;;;;;;;;;0.00;0.00;;;;;22.49;36.28;102089.47;5075857;28;45243;-82
2023/03/27 04:59:05;;;;;;;;;0.00;0.00;;;;;22.58;36.41;102103.63;5075829;28;45359;-83
2023/03/27 05:01:30;;;;;;;;;0.00;0.00;;;;;22.59;36.18;102104.44;5075777;27;46855;-82
2023/03/27 05:03:56;;;;;;;;;0.67;0.00;;;;;22.61;36.22;102107.81;5075833;28;45354;-82
2023/03/27 05:06:22;;;;;;;;;0.00;0.00;;;;;22.60;36.17;102100.81;5076052;27;45386;-82
2023/03/27 05:08:47;;;;;;;;;0.00;0.00;;;;;22.54;36.27;102090.81;5075547;28;45343;-82
2023/03/27 05:11:13;;;;;;;;;0.00;0.00;;;;;22.62;36.28;102112.09;5074310;28;47383;-82
2023/03/27 05:13:39;;;;;;;;;0.00;0.00;;;;;22.61;36.93;102116.56;5075848;28;45257;-82
2023/03/27 05:16:05;;;;;;;;;0.00;0.00;;;;;22.60;36.77;102112.25;5075637;27;45292;-82
2023/03/27 05:18:30;;;;;;;;;0.00;0.00;;;;;22.58;36.52;102119.56;5075758;27;45442;-82
2023/03/27 05:20:57;;;;;;;;;0.00;0.00;;;;;22.56;36.68;102118.84;5075468;28;46062;-83
2023/03/27 05:23:22;;;;;;;;;0.00;0.00;;;;;22.54;36.71;102123.47;5075049;27;45366;-83
2023/03/27 05:25:47;;;;;;;;;0.67;0.00;;;;;22.53;36.37;102127.13;5075548;27;45189;-83
2023/03/27 05:28:13;;;;;;;;;0.00;0.00;;;;;22.51;36.42;102119.31;5075710;28;45255;-83
2023/03/27 05:30:41;;;;;;;;;0.00;0.00;;;;;22.50;36.84;102119.47;5075748;28;45239;-81
2023/03/27 05:33:06;;;;;;;;;1.00;0.00;;;;;22.53;36.44;102124.47;5075472;28;45531;-81
2023/03/27 05:35:33;;;;;;;;;0.00;0.00;;;;;22.54;36.56;102134.09;5074914;28;45673;-83
2023/03/27 05:37:59;;;;;;;;;0.00;0.00;;;;;22.55;36.59;102132.28;5078123;27;45561;-79
2023/03/27 05:40:27;;;;;;;;;1.00;0.00;;;;;22.55;36.64;102141.06;5078717;28;46550;-81
2023/03/27 05:42:54;;;;;;;;;0.00;0.00;;;;;22.58;36.78;102142.59;5078505;28;45417;-77
2023/03/27 05:45:20;;;;;;;;;0.00;0.00;;;;;22.57;36.76;102141.75;5078994;28;45285;-85
2023/03/27 05:47:56;;;;;;;;;0.00;0.00;;;;;22.59;36.72;102147.72;5078808;28;45470;-78
2023/03/27 05:50:25;;;;;;;;;0.00;0.00;;;;;22.61;36.76;102151.06;5078540;28;46962;-81
2023/03/27 05:53:02;;;;;;;;;0.00;0.00;;;;;22.62;36.79;102170.47;5055853;28;45394;-82
2023/03/27 05:55:29;;;;;;;;;0.00;0.00;;;;;22.63;37.13;102178.28;5038739;28;45415;-82
2023/03/27 05:57:54;;;;;;;;;0.67;0.00;;;;;22.64;36.99;102173.78;5057603;28;45434;-78
2023/03/27 06:00:24;;;;;;;;;1.33;0.00;;;;;22.63;36.61;102172.13;5066916;28;46121;-77
2023/03/27 06:02:53;;;;;;;;;0.00;0.00;;;;;22.64;36.68;102187.06;5063011;28;45392;-77
2023/03/27 06:05:20;;;;;;;;;0.00;0.00;;;;;22.64;36.99;102189.69;5067152;28;45480;-77
2023/03/27 06:07:46;;;;;;;;;0.00;0.00;;;;;22.64;36.98;102181.75;5074887;28;45593;-76
2023/03/27 06:10:14;;;;;;;;;0.00;0.00;;;;;22.65;37.03;102193.19;5078063;28;46223;-79
2023/03/27 06:12:40;;;;;;;;;0.00;0.00;;;;;22.66;36.56;102192.22;5078174;28;45311;-79
2023/03/27 06:15:07;;;;;;;;;0.00;0.00;;;;;22.66;36.99;102189.56;5078467;28;45274;-79
2023/03/27 06:17:34;;;;;;;;;0.00;0.00;;;;;22.65;36.63;102194.03;5078446;28;45529;-79
2023/03/27 06:19:59;;;;;;;;;0.00;0.00;;;;;22.68;36.71;102206.16;5077812;28;45538;-81
2023/03/27 06:22:26;;;;;;;;;0.00;0.00;;;;;22.68;36.96;102201.69;5071350;28;45429;-82
2023/03/27 06:24:52;;;;;;;;;0.00;0.00;;;;;22.67;36.76;102207.13;5058062;28;45412;-82
2023/03/27 06:27:19;;;;;;;;;0.00;0.00;;;;;22.67;36.67;102210.63;5058028;28;45360;-82
2023/03/27 06:29:45;;;;;;;;;0.00;0.00;;;;;22.68;37.24;102214.97;5057684;28;46360;-80
2023/03/27 06:32:11;;;;;;;;;0.00;0.00;;;;;22.69;36.64;102203.34;5057675;28;45360;-80
2023/03/27 06:34:36;;;;;;;;;0.00;0.00;;;;;22.67;37.18;102215.09;5057442;28;45443;-74
2023/03/27 06:37:02;;;;;;;;;0.00;0.00;;;;;22.71;36.92;102225.31;5067304;28;45415;-73
2023/03/27 06:39:27;;;;;;;;;1.00;0.00;;;;;22.62;36.94;102207.59;5077765;28;45391;-74
2023/03/27 06:41:53;;;;;;;;;0.00;0.00;;;;;22.70;36.89;102223.63;5077871;27;45942;-77
2023/03/27 06:44:18;;;;;;;;;1.00;0.00;;;;;22.72;36.86;102231.44;5078174;28;45480;-74
2023/03/27 06:46:43;;;;;;;;;1.00;1.00;;;;;22.72;36.80;102237.56;5077589;28;45344;-76
2023/03/27 06:49:09;;;;;;;;;0.00;0.00;;;;;22.73;37.35;102230.44;5077305;28;46239;-79
2023/03/27 06:51:34;;;;;;;;;2.33;0.00;;;;;22.72;36.57;102237.56;5077924;28;45465;-79
2023/03/27 06:54:00;;;;;;;;;0.33;0.00;;;;;22.71;36.96;102251.84;5077911;28;45300;-79
2023/03/27 06:56:25;;;;;;;;;0.67;0.67;;;;;22.71;37.14;102256.31;5077797;28;45400;-79
2023/03/27 06:58:51;;;;;;;;;0.00;0.00;;;;;22.71;36.96;102261.63;5077409;28;46999;-79
2023/03/27 07:01:16;;;;;;;;;1.00;1.00;;;;;22.69;37.10;102258.25;5077680;27;45382;-79
2023/03/27 07:03:41;;;;;;;;;1.33;0.00;;;;;22.68;37.52;102262.72;5077480;28;45346;-78
2023/03/27 07:06:07;;;;;;;;;1.67;0.00;;;;;22.69;36.99;102260.91;5077573;27;45385;-78
2023/03/27 07:08:32;;;;;;;;;0.00;0.00;;;;;22.69;37.31;102272.31;5077496;28;45429;-79
2023/03/27 07:10:59;;;;;;;;;0.00;0.00;;;;;22.70;37.00;102278.50;5077418;28;45407;-79
2023/03/27 07:13:24;;;;;;;;;1.00;1.00;;;;;22.63;36.77;102265.81;5077497;28;45298;-79
2023/03/27 07:15:50;;;;;;;;;0.00;0.00;;;;;22.71;36.95;102281.03;5077526;27;45601;-79
2023/03/27 07:18:16;;;;;;;;;0.00;0.00;;;;;22.72;36.77;102295.94;5077063;27;45328;-78
2023/03/27 07:20:43;;;;;;;;;0.00;0.00;;;;;22.73;36.76;102287.00;5077201;28;45313;-80
2023/03/27 07:23:09;;;;;;;;;2.00;0.00;;;;;22.69;36.66;102285.59;5077074;27;45294;-80
2023/03/27 07:25:37;;;;;;;;;0.00;0.00;;;;;22.70;37.18;102295.25;5076760;27;45482;-81
2023/03/27 07:28:05;;;;;;;;;0.00;0.00;;;;;22.75;36.91;102302.78;5077000;27;46940;-79
2023/03/27 07:30:32;;;;;;;;;1.00;0.00;;;;;22.74;36.56;102307.22;5077164;28;45365;-79
2023/03/27 07:32:57;;;;;;;;;0.00;0.00;;;;;22.70;36.85;102305.03;5076935;28;45394;-80
2023/03/27 07:35:25;;;;;;;;;0.00;0.00;;;;;22.77;37.15;102313.25;5077195;27;45535;-80
2023/03/27 07:37:55;;;;;;;;;0.00;0.00;;;;;22.79;37.12;102322.72;5076698;28;47308;-79
2023/03/27 07:40:21;;;;;;;;;2.00;0.00;;;;;22.79;37.13;102322.72;5076901;27;45362;-79
2023/03/27 07:42:48;;;;;;;;;0.00;0.00;;;;;22.77;37.14;102327.31;5076919;28;45255;-79
2023/03/27 07:45:15;;;;;;;;;0.00;0.00;;;;;22.74;37.06;102309.88;5077105;28;45249;-80
2023/03/27 07:47:42;;;;;;;;;0.00;0.00;;;;;22.77;36.87;102319.38;5076345;28;47393;-80
2023/03/27 07:50:10;;;;;;;;;0.00;0.00;;;;;22.79;36.61;102335.16;5076711;27;45378;-80
2023/03/27 07:52:35;;;;;;;;;1.00;1.00;;;;;22.79;37.00;102327.19;5076939;27;45393;-80
2023/03/27 07:55:02;;;;;;;;;0.00;0.00;;;;;22.78;36.90;102323.69;5076701;28;45463;-80
2023/03/27 07:57:28;;;;;;;;;0.67;0.67;;;;;22.80;36.60;102331.50;5076672;28;46907;-80
2023/03/27 07:59:56;;;;;;;;;0.00;0.00;;;;;22.80;37.16;102336.81;5075486;27;45434;-80
2023/03/27 08:02:21;;;;;;;;;0.00;0.00;;;;;22.80;36.51;102329.69;5076402;27;45337;-80
2023/03/27 08:04:47;;;;;;;;;0.00;0.00;;;;;22.80;36.79;102336.81;5076678;28;45406;-80
2023/03/27 08:07:12;;;;;;;;;2.00;0.00;;;;;22.76;37.16;102332.78;5076727;27;48160;-80
2023/03/27 08:09:38;;;;;;;;;0.00;0.00;;;;;22.76;37.07;102325.69;5076522;28;45346;-80
2023/03/27 08:12:06;;;;;;;;;1.00;0.00;;;;;22.82;36.74;102345.47;5076746;27;45272;-80
2023/03/27 08:14:31;;;;;;;;;1.00;1.00;;;;;22.83;37.04;102341.81;5076616;28;45285;-80
2023/03/27 08:16:57;;;;;;;;;0.33;0.33;;;;;22.83;36.49;102352.44;5075965;27;46904;-80
2023/03/27 08:19:22;;;;;;;;;0.00;0.00;;;;;22.78;37.02;102341.44;5076311;27;45307;-80
2023/03/27 08:21:48;;;;;;;;;0.00;0.00;;;;;22.80;36.87;102348.25;5092317;27;45337;-79
2023/03/27 08:24:13;;;;;;;;;0.00;0.00;;;;;22.80;37.02;102347.41;5076569;28;45473;-80
2023/03/27 08:26:38;;;;;;;;;0.00;0.00;;;;;22.62;36.37;102326.97;5076179;28;45403;-79
2023/03/27 08:29:04;;;;;;;;;0.00;0.00;;;;;22.87;36.91;102368.91;5076279;27;45303;-80
2023/03/27 08:31:30;;;;;;;;;0.67;0.00;;;;;22.85;36.72;102363.72;5076140;28;45939;-79
2023/03/27 08:33:55;;;;;;;;;0.00;0.00;;;;;22.87;36.93;102363.59;5075029;28;45430;-79
2023/03/27 08:36:21;;;;;;;;;0.00;0.00;;;;;22.87;36.29;102367.09;5075908;28;46355;-79
2023/03/27 08:38:47;;;;;;;;;1.00;1.00;;;;;22.89;36.37;102369.59;5075941;28;45722;-80
2023/03/27 08:41:37;;;;;;;;;0.00;0.00;;;;;22.88;36.92;102371.41;5076487;27;45452;-80
2023/03/27 08:44:08;;;;;;;;;1.00;1.00;;;;;22.68;36.65;102338.81;5076029;28;45370;-80
2023/03/27 08:47:02;;;;;;;;;1.00;0.00;;;;;22.89;36.66;102382.84;5075468;28;47249;-80
2023/03/27 08:49:40;;;;;;;;;0.00;0.00;;;;;22.84;36.28;102383.31;5075296;28;45314;-79
2023/03/27 08:52:15;;;;;;;;;0.00;0.00;;;;;22.90;36.16;102390.66;5076105;28;45358;-79
2023/03/27 08:54:44;;;;;;;;;1.00;1.00;;;;;22.90;36.48;102397.81;5074728;28;45588;-79
2023/03/27 08:57:21;;;;;;;;;0.00;0.00;;;;;22.90;36.76;102395.16;5075747;28;46255;-80
2023/03/27 08:59:47;;;;;;;;;1.00;1.00;;;;;22.91;36.67;102412.72;5075305;27;45442;-79
2023/03/27 09:02:27;;;;;;;;;0.00;0.00;;;;;22.89;36.76;102404.09;5075955;28;45418;-80
2023/03/27 09:04:58;;;;;;;;;0.67;0.00;;;;;22.89;36.64;102415.56;5075910;28;45488;-79
2023/03/27 09:07:31;;;;;;;;;0.33;0.33;;;;;22.91;36.73;102418.03;5075627;28;46357;-80
2023/03/27 09:10:24;;;;;;;;;0.33;0.33;;;;;22.91;36.58;102416.22;5075848;28;45499;-80
2023/03/27 09:13:07;;;;;;;;;1.00;1.00;;;;;22.91;36.59;102424.19;5075217;28;45429;-79
2023/03/27 09:16:03;;;;;;;;;0.00;0.00;;;;;22.91;36.05;102423.34;5079009;28;45306;-80
2023/03/27 09:18:58;;;;;;;;;0.00;0.00;;;;;22.87;36.34;102422.00;5078482;28;46959;-79
2023/03/27 09:21:59;;;;;;;;;0.00;0.00;;;;;22.92;36.70;102427.69;5079043;28;45293;-79
2023/03/27 09:24:29;;;;;;;;;2.33;0.00;;;;;22.92;36.14;102443.63;5079246;28;45500;-79
2023/03/27 09:26:56;;;;;;;;;1.00;1.00;;;;;22.88;36.02;102435.09;5078999;28;45392;-80
2023/03/27 09:29:30;;;;;;;;;0.00;0.00;;;;;22.92;36.46;102436.50;5078489;28;46156;-80
2023/03/27 09:31:57;;;;;;;;;0.33;0.33;;;;;22.92;36.15;102438.31;5078993;27;45423;-80
2023/03/27 09:34:28;;;;;;;;;0.00;0.00;;;;;22.93;36.63;102434.66;5094818;27;45419;-80
2023/03/27 09:36:57;;;;;;;;;0.00;0.00;;;;;22.87;36.53;102414.88;5079102;27;45623;-80
2023/03/27 09:39:27;;;;;;;;;0.00;0.00;;;;;22.90;36.15;102430.47;5078521;28;45426;-80
2023/03/27 09:41:59;;;;;;;;;0.00;0.00;;;;;22.93;36.25;102439.97;5078820;27;45306;-80
2023/03/27 09:44:28;;;;;;;;;0.00;0.00;;;;;22.88;36.38;102416.53;5078593;28;45487;-79
2023/03/27 09:47:14;;;;;;;;;1.00;1.00;;;;;22.94;36.35;102431.88;5078873;27;45291;-79
2023/03/27 09:49:48;;;;;;;;;0.00;0.00;;;;;22.94;35.84;102429.22;5078664;27;47084;-79
2023/03/27 09:52:33;;;;;;;;;0.00;0.00;;;;;22.90;36.01;102429.66;5078791;27;45440;-80
2023/03/27 09:54:59;;;;;;;;;0.00;0.00;;;;;22.92;36.07;102425.88;5079043;28;45343;-79
2023/03/27 09:57:34;;;;;;;;;0.00;0.00;;;;;22.91;35.99;102416.22;5078328;27;45378;-79
2023/03/27 10:00:26;;;;;;;;;2.00;0.00;;;;;22.86;35.94;102413.19;5078255;28;45364;-79
2023/03/27 10:03:04;;;;;;;;;0.00;0.00;;;;;22.94;35.85;102420.41;5078442;28;45296;-79
2023/03/27 10:05:31;;;;;;;;;0.00;0.00;;;;;22.95;35.87;102422.91;5078797;27;45399;-79
2023/03/27 10:07:57;;;;;;;;;0.00;0.00;;;;;22.95;35.80;102427.41;5078606;28;45361;-79
2023/03/27 10:10:25;;;;;;;;;0.00;0.00;;;;;22.96;35.68;102423.75;5078506;28;46184;-79
2023/03/27 10:12:54;;;;;;;;;0.00;0.00;;;;;22.95;35.82;102427.41;5078057;28;45402;-79
2023/03/27 10:15:32;;;;;;;;;0.00;0.00;;;;;22.95;35.55;102425.56;5078466;28;45409;-79
2023/03/27 10:18:00;;;;;;;;;0.00;0.00;;;;;22.93;35.99;102419.56;5078322;28;45445;-79
2023/03/27 10:20:25;;;;;;;;;1.00;0.00;;;;;22.93;35.97;102432.84;5078089;28;48105;-80
2023/03/27 10:22:58;;;;;;;;;0.00;0.00;;;;;22.96;35.84;102439.66;5077246;27;45317;-79
2023/03/27 10:25:32;;;;;;;;;3.00;0.00;;;;;22.95;36.03;102440.66;5078477;27;45303;-79
2023/03/27 10:28:08;;;;;;;;;2.33;0.33;;;;;22.92;35.74;102439.16;5078057;27;45392;-79
2023/03/27 10:30:36;;;;;;;;;0.00;0.00;;;;;22.95;36.03;102443.31;5077923;28;46403;-79
2023/03/27 10:33:02;;;;;;;;;1.00;0.00;;;;;22.95;35.44;102438.00;5057796;28;45502;-80
2023/03/27 10:35:33;;;;;;;;;0.67;0.00;;;;;22.91;35.52;102436.63;5057947;28;45713;-79
2023/03/27 10:38:00;;;;;;;;;0.00;0.00;;;;;22.94;35.44;102442.47;5057713;28;45367;-79
2023/03/27 10:40:33;;;;;;;;;0.33;0.33;;;;;22.95;35.69;102438.00;5057081;28;46275;-79
2023/03/27 10:43:03;;;;;;;;;0.00;0.00;;;;;22.94;35.80;102439.81;5057747;28;45340;-79
2023/03/27 10:45:31;;;;;;;;;0.67;0.00;;;;;22.94;35.42;102437.19;5057925;28;45379;-79
2023/03/27 10:48:00;;;;;;;;;0.00;0.00;;;;;22.88;35.76;102431.59;5057881;28;45327;-79
2023/03/27 10:50:42;;;;;;;;;0.00;0.00;;;;;22.85;35.28;102430.91;5056257;28;45954;-80
2023/03/27 10:53:23;;;;;;;;;1.00;0.00;;;;;22.94;35.67;102444.28;5057365;28;45462;-80
2023/03/27 10:56:15;;;;;;;;;0.00;0.00;;;;;22.94;35.35;102452.25;5057189;28;45373;-79
2023/03/27 10:58:48;;;;;;;;;0.00;0.00;;;;;22.94;35.48;102452.25;5057381;28;45356;-79
2023/03/27 11:01:23;;;;;;;;;1.00;0.00;;;;;22.94;35.87;102457.56;5057362;28;47152;-80
2023/03/27 11:04:03;;;;;;;;;0.00;0.00;;;;;22.93;35.31;102462.03;5057214;28;45407;-79
2023/03/27 11:06:35;;;;;;;;;0.33;0.33;;;;;22.93;35.16;102462.03;5057503;28;45334;-79
2023/03/27 11:09:45;;;;;;;;;0.00;0.00;;;;;22.94;35.58;102460.22;5057480;28;45300;-79
2023/03/27 11:12:15;;;;;;;;;0.00;0.00;;;;;22.91;35.82;102456.03;5034727;28;46188;-79
2023/03/27 11:14:52;;;;;;;;;0.00;0.00;;;;;22.93;35.61;102466.50;5034863;28;45260;-79
2023/03/27 11:17:27;;;;;;;;;0.00;0.00;;;;;22.94;35.73;102469.03;5034750;28;45522;-78
2023/03/27 11:19:59;;;;;;;;;0.00;0.00;;;;;22.81;35.14;102441.97;5034791;28;45409;-79
2023/03/27 11:22:31;;;;;;;;;0.00;0.00;;;;;22.94;34.87;102462.88;5034421;28;46028;-79
2023/03/27 11:25:12;;;;;;;;;0.50;0.50;;;;;22.93;35.21;102472.66;5034312;28;45365;-79
2023/03/27 11:27:44;;;;;;;;;0.33;0.00;;;;;22.89;35.15;102465.97;5034567;28;45419;-79
2023/03/27 11:30:24;;;;;;;;;0.33;0.00;;;;;22.94;35.13;102476.16;5034602;28;45457;-79
2023/03/27 11:33:12;;;;;;;;;0.00;0.00;;;;;22.93;35.55;102474.47;5034358;28;45437;-80
2023/03/27 11:35:42;;;;;;;;;0.00;0.00;;;;;22.89;35.23;102479.25;5034288;28;45404;-78
2023/03/27 11:38:22;;;;;;;;;0.00;0.00;;;;;22.92;35.49;102476.31;5034299;28;45353;-79
2023/03/27 11:40:51;;;;;;;;;0.67;0.00;;;;;22.88;35.27;102474.91;5034077;28;45458;-79
2023/03/27 11:43:19;;;;;;;;;1.67;0.00;;;;;22.91;35.10;102479.94;5049418;28;45287;-80